»·PEaware :: AAL702 KSEA-KLAX

AAL702 :: KSEA-KLAX

FLIGHT INFORMATION

Flight Status: Arrived
Operator:
American Airlines
More flights by this operator :: More flights under this callsign
Pilot: Ben L. (6391)
Aircraft: AIRBUS A330-200
(A332)
More flights by this aircraft type
Origin: KSEA Seattle-Tacoma Intl
United States
Destination: KLAX Los Angeles Intl
United States
More flights between these airports :: More routes between these airports
Route: +SUMMA9 LKV FRA J7 DERBB SADDE7
File this flight plan on PilotEdge
Remarks:
Altitude:
(Current/Filed)
35,000ft
Speed:
(Current/Filed)
450kts
Departed: 17-Mar-17 06:36 PM
Arrived: 17-Mar-17 09:10 PM
Distance/Time
Traveled:
829nm/2:33
Distance/Time
To Go:
Arrived

Flight Plot

Page will automatically refresh every two minutes.

Flight plan parsing failed; only flown route is shown


Map Options




Map Legend


Flown Route
Filed Route
Departure Airport
Arrival Airport
Navaid (VOR, NDB)
Fix

Horizontal Profiles

Position Reports

Time Latitude Longitude Heading Altitude Ground
Speed
17-Mar-17 17:54 47.440858 -122.300365 43 446ft 0kts
17-Mar-17 17:55 47.440858 -122.300365 43 446ft 0kts
17-Mar-17 17:56 47.440858 -122.300365 43 446ft 0kts
17-Mar-17 17:57 47.440858 -122.300365 43 446ft 0kts
17-Mar-17 17:58 47.440858 -122.300365 43 446ft 0kts
17-Mar-17 17:59 47.440858 -122.300365 43 446ft 0kts
17-Mar-17 18:00 47.440858 -122.300365 43 446ft 0kts
17-Mar-17 18:01 47.440858 -122.300365 43 446ft 0kts
17-Mar-17 18:02 47.440858 -122.300365 43 446ft 0kts
17-Mar-17 18:03 47.440858 -122.300365 43 446ft 0kts
17-Mar-17 18:04 47.440858 -122.300365 43 446ft 0kts
17-Mar-17 18:05 47.440858 -122.300365 43 446ft 0kts
17-Mar-17 18:06 47.440858 -122.300365 43 446ft 0kts
17-Mar-17 18:07 47.440858 -122.300365 43 446ft 0kts
17-Mar-17 18:08 47.440858 -122.300365 43 446ft 0kts
17-Mar-17 18:09 47.440858 -122.300365 43 446ft 0kts
17-Mar-17 18:10 47.440858 -122.300365 43 446ft 0kts
17-Mar-17 18:11 47.440858 -122.300365 43 446ft 0kts
17-Mar-17 18:12 47.440858 -122.300365 43 446ft 0kts
17-Mar-17 18:13 47.440858 -122.300365 43 446ft 0kts
17-Mar-17 18:14 47.440858 -122.300365 43 446ft 0kts
17-Mar-17 18:15 47.440858 -122.300365 43 446ft 0kts
17-Mar-17 18:16 47.440858 -122.300365 43 446ft 0kts
17-Mar-17 18:17 47.440858 -122.300365 43 446ft 0kts
17-Mar-17 18:18 47.440858 -122.300365 43 446ft 0kts
17-Mar-17 18:19 47.440858 -122.300365 43 446ft 0kts
17-Mar-17 18:20 47.440858 -122.300365 43 446ft 0kts
17-Mar-17 18:21 47.440858 -122.300365 43 446ft 0kts
17-Mar-17 18:22 47.440858 -122.300365 43 446ft 0kts
17-Mar-17 18:23 47.440858 -122.300365 43 446ft 0kts
17-Mar-17 18:24 47.440858 -122.300365 43 446ft 0kts
17-Mar-17 18:25 47.440858 -122.300365 43 446ft 0kts
17-Mar-17 18:26 47.440446 -122.300927 47 446ft 0kts
17-Mar-17 18:27 47.440370 -122.301020 18 446ft 0kts
17-Mar-17 18:28 47.440370 -122.301020 18 446ft 0kts
17-Mar-17 18:29 47.439910 -122.304778 269 446ft 2kts
17-Mar-17 18:30 47.439910 -122.304903 269 446ft 3kts
17-Mar-17 18:31 47.436072 -122.305982 151 446ft 21kts
17-Mar-17 18:32 47.431952 -122.306316 241 446ft 0kts
17-Mar-17 18:33 47.431952 -122.306316 241 446ft 0kts
17-Mar-17 18:34 47.431952 -122.306316 241 446ft 0kts
17-Mar-17 18:35 47.431952 -122.306316 241 446ft 0kts
17-Mar-17 18:36 47.431935 -122.306361 241 446ft 4kts
17-Mar-17 18:37 47.442277 -122.307932 1 446ft 129kts
17-Mar-17 18:38 47.487178 -122.307506 359 2317ft 175kts
17-Mar-17 18:39 47.538588 -122.310814 4 3797ft 199kts
17-Mar-17 18:40 47.600294 -122.301735 28 4782ft 267kts
17-Mar-17 18:41 47.625862 -122.223998 85 6222ft 275kts
17-Mar-17 18:42 47.639161 -122.095291 94 9234ft 289kts
17-Mar-17 18:43 47.596700 -122.039722 181 10435ft 302kts
17-Mar-17 18:44 47.537386 -122.037762 180 11863ft 328kts
17-Mar-17 18:45 47.432257 -122.014738 175 15119ft 344kts
17-Mar-17 18:46 47.355932 -122.002423 183 17217ft 351kts
17-Mar-17 18:47 47.243995 -122.008209 186 20070ft 363kts
17-Mar-17 18:48 47.160329 -122.010250 186 22032ft 371kts
17-Mar-17 18:49 47.057095 -122.009314 186 24051ft 381kts
17-Mar-17 18:50 46.933409 -122.004371 186 26272ft 394kts
17-Mar-17 18:51 46.844119 -121.999206 185 27732ft 402kts
17-Mar-17 18:52 46.714697 -121.989544 185 29858ft 409kts
17-Mar-17 18:53 46.622591 -121.977773 181 31412ft 414kts
17-Mar-17 18:54 46.515313 -121.949568 180 32951ft 416kts
17-Mar-17 18:55 46.407528 -121.919246 180 34288ft 416kts
17-Mar-17 18:56 46.282189 -121.861629 158 34895ft 451kts
17-Mar-17 18:57 46.192919 -121.843130 182 34842ft 410kts
17-Mar-17 18:58 46.084775 -121.793074 168 34972ft 434kts
17-Mar-17 18:59 45.978853 -121.729011 168 34994ft 434kts
17-Mar-17 19:00 45.872855 -121.659395 165 34998ft 438kts
17-Mar-17 19:01 45.765369 -121.590339 164 35001ft 438kts
17-Mar-17 19:02 45.657276 -121.519192 164 34998ft 438kts
17-Mar-17 19:03 45.551136 -121.460563 169 34997ft 432kts
17-Mar-17 19:04 45.441746 -121.413020 172 34997ft 427kts
17-Mar-17 19:05 45.331069 -121.366545 172 34997ft 426kts
17-Mar-17 19:06 45.223836 -121.321460 173 34992ft 426kts
17-Mar-17 19:07 45.113616 -121.275076 173 34993ft 426kts
17-Mar-17 19:08 45.006852 -121.231140 173 34991ft 412kts
17-Mar-17 19:09 44.899215 -121.197239 179 34993ft 417kts
17-Mar-17 19:10 44.791718 -121.170189 179 34995ft 418kts
17-Mar-17 19:11 44.681724 -121.142671 179 34995ft 418kts
17-Mar-17 19:12 44.569108 -121.114648 178 34995ft 418kts
17-Mar-17 19:13 44.457612 -121.087170 178 34995ft 417kts
17-Mar-17 19:14 44.345534 -121.059693 178 34974ft 418kts
17-Mar-17 19:15 44.233973 -121.034412 179 34969ft 417kts
17-Mar-17 19:16 44.120875 -121.007015 178 34995ft 417kts
17-Mar-17 19:17 44.007602 -120.979151 175 34993ft 421kts
17-Mar-17 19:18 43.898206 -120.934720 171 34994ft 426kts
17-Mar-17 19:19 43.787876 -120.887703 171 34997ft 425kts
17-Mar-17 19:20 43.677941 -120.841072 171 34996ft 425kts
17-Mar-17 19:21 43.570115 -120.851232 200 35003ft 394kts
17-Mar-17 19:22 43.459305 -120.844754 175 34996ft 420kts
17-Mar-17 19:23 43.348108 -120.807105 173 34996ft 422kts
17-Mar-17 19:24 43.259383 -120.775653 173 34995ft 422kts
17-Mar-17 19:25 43.147030 -120.735833 173 34995ft 422kts
17-Mar-17 19:26 43.035131 -120.696315 173 34995ft 422kts
17-Mar-17 19:27 42.923453 -120.657022 173 35069ft 422kts
17-Mar-17 19:28 42.821115 -120.621166 173 35104ft 421kts
17-Mar-17 19:29 42.711611 -120.582906 173 35106ft 421kts
17-Mar-17 19:30 42.601476 -120.544581 173 35105ft 421kts
17-Mar-17 19:31 42.490071 -120.507146 179 35101ft 416kts
17-Mar-17 19:32 42.378480 -120.490317 180 35103ft 413kts
17-Mar-17 19:33 42.270050 -120.474020 180 35104ft 413kts
17-Mar-17 19:34 42.165070 -120.458328 180 35104ft 413kts
17-Mar-17 19:35 42.057840 -120.442354 180 35104ft 414kts
17-Mar-17 19:36 41.948869 -120.426249 179 35106ft 415kts
17-Mar-17 19:37 41.842325 -120.410401 180 35105ft 413kts
17-Mar-17 19:38 41.732051 -120.394151 180 35105ft 413kts
17-Mar-17 19:39 41.625285 -120.378461 180 35106ft 413kts
17-Mar-17 19:40 41.518408 -120.362808 180 35105ft 413kts
17-Mar-17 19:41 41.412460 -120.347242 180 35101ft 413kts
17-Mar-17 19:42 41.300531 -120.330314 180 35102ft 413kts
17-Mar-17 19:43 41.189165 -120.314142 180 35102ft 413kts
17-Mar-17 19:44 41.079221 -120.298254 180 35100ft 414kts
17-Mar-17 19:45 40.973314 -120.283006 180 35103ft 413kts
17-Mar-17 19:46 40.869076 -120.268045 180 35104ft 413kts
17-Mar-17 19:47 40.760019 -120.252442 180 35104ft 413kts
17-Mar-17 19:48 40.648550 -120.236546 180 35103ft 413kts
17-Mar-17 19:49 40.538141 -120.220855 180 35103ft 413kts
17-Mar-17 19:50 40.432894 -120.205961 179 35104ft 416kts
17-Mar-17 19:51 40.327457 -120.191051 180 35102ft 413kts
17-Mar-17 19:52 40.215458 -120.175291 180 35102ft 413kts
17-Mar-17 19:53 40.101973 -120.159370 180 35102ft 414kts
17-Mar-17 19:54 39.988171 -120.143459 179 35102ft 413kts
17-Mar-17 19:55 39.880597 -120.128463 179 34969ft 414kts
17-Mar-17 19:56 39.773746 -120.113525 179 34988ft 414kts
17-Mar-17 19:57 39.667434 -120.098874 179 35106ft 415kts
17-Mar-17 19:58 39.556983 -120.083646 179 35107ft 414kts
17-Mar-17 19:59 39.448675 -120.068744 179 35103ft 414kts
17-Mar-17 20:00 39.344243 -120.054416 179 35148ft 414kts
17-Mar-17 20:01 39.238633 -120.039970 179 35184ft 414kts
17-Mar-17 20:02 39.129770 -120.025124 179 35184ft 414kts
17-Mar-17 20:03 39.017313 -120.009837 179 35184ft 414kts
17-Mar-17 20:04 38.904451 -119.994585 178 35143ft 417kts
17-Mar-17 20:05 38.798615 -119.980243 179 35131ft 414kts
17-Mar-17 20:06 38.686353 -119.965130 179 35186ft 414kts
17-Mar-17 20:07 38.579624 -119.950801 179 35197ft 414kts
17-Mar-17 20:08 38.467517 -119.935796 179 35211ft 414kts
17-Mar-17 20:09 38.364258 -119.922017 179 35212ft 414kts
17-Mar-17 20:10 38.254568 -119.907422 179 35211ft 414kts
17-Mar-17 20:11 38.153072 -119.893993 178 35211ft 417kts
17-Mar-17 20:12 38.053901 -119.880834 179 35213ft 414kts
17-Mar-17 20:13 37.953252 -119.867558 179 35210ft 415kts
17-Mar-17 20:14 37.850408 -119.854030 178 35212ft 414kts
17-Mar-17 20:15 37.741491 -119.839741 178 35153ft 414kts
17-Mar-17 20:16 37.632533 -119.825490 178 35132ft 414kts
17-Mar-17 20:17 37.524516 -119.811402 178 35062ft 415kts
17-Mar-17 20:18 37.434364 -119.799676 178 35025ft 415kts
17-Mar-17 20:19 37.346555 -119.788281 178 35052ft 415kts
17-Mar-17 20:20 37.256257 -119.776556 178 35052ft 413kts
17-Mar-17 20:21 37.169642 -119.765405 178 35050ft 415kts
17-Mar-17 20:22 37.087724 -119.754850 178 35049ft 415kts
17-Mar-17 20:23 37.003715 -119.744049 178 35049ft 415kts
17-Mar-17 20:24 36.914449 -119.732598 178 35048ft 415kts
17-Mar-17 20:25 36.816003 -119.720004 178 35050ft 415kts
17-Mar-17 20:26 36.708203 -119.706247 178 35050ft 415kts
17-Mar-17 20:27 36.605936 -119.693231 178 35050ft 415kts
17-Mar-17 20:28 36.509577 -119.680999 178 35050ft 415kts
17-Mar-17 20:29 36.429299 -119.670844 178 35050ft 415kts
17-Mar-17 20:30 36.341195 -119.659696 178 35050ft 415kts
17-Mar-17 20:31 36.249683 -119.648160 178 35050ft 415kts
17-Mar-17 20:32 36.163987 -119.637381 178 35049ft 415kts
17-Mar-17 20:33 36.077767 -119.626563 178 35049ft 415kts
17-Mar-17 20:34 35.985505 -119.615332 182 35046ft 413kts
17-Mar-17 20:35 35.890852 -119.618384 185 35050ft 410kts
17-Mar-17 20:36 35.785244 -119.622245 186 35050ft 410kts
17-Mar-17 20:37 35.708747 -119.625068 186 35050ft 410kts
17-Mar-17 20:38 35.602476 -119.628986 185 35050ft 410kts
17-Mar-17 20:39 35.497111 -119.632860 186 35050ft 410kts
17-Mar-17 20:40 35.393839 -119.636652 186 35050ft 410kts
17-Mar-17 20:41 35.284714 -119.640504 183 35048ft 411kts
17-Mar-17 20:42 35.182978 -119.579114 152 34179ft 438kts
17-Mar-17 20:43 35.089857 -119.500640 151 32833ft 441kts
17-Mar-17 20:44 34.998978 -119.423342 151 31518ft 444kts
17-Mar-17 20:45 34.907897 -119.345783 151 30200ft 446kts
17-Mar-17 20:46 34.811208 -119.263061 151 28802ft 446kts
17-Mar-17 20:47 34.714666 -119.181280 151 27383ft 435kts
17-Mar-17 20:48 34.620582 -119.102081 151 25591ft 420kts
17-Mar-17 20:49 34.532434 -119.028133 151 23730ft 404kts
17-Mar-17 20:50 34.446094 -118.955854 151 21833ft 389kts
17-Mar-17 20:51 34.365876 -118.889084 155 19276ft 362kts
17-Mar-17 20:52 34.276993 -118.852260 167 16471ft 334kts
17-Mar-17 20:53 34.191211 -118.820515 166 13518ft 324kts
17-Mar-17 20:54 34.108220 -118.790083 165 11955ft 316kts
17-Mar-17 20:55 34.027581 -118.752842 135 10852ft 320kts
17-Mar-17 20:56 34.023300 -118.660117 91 9558ft 303kts
17-Mar-17 20:57 34.020337 -118.575148 97 8187ft 271kts
17-Mar-17 20:58 34.014329 -118.502522 98 6975ft 244kts
17-Mar-17 20:59 34.014929 -118.438964 81 6953ft 241kts
17-Mar-17 21:00 34.024157 -118.379030 81 6407ft 239kts
17-Mar-17 21:01 34.033580 -118.316640 82 5329ft 235kts
17-Mar-17 21:02 34.043812 -118.248366 82 4139ft 230kts
17-Mar-17 21:03 34.053224 -118.183917 82 3544ft 211kts
17-Mar-17 21:04 34.032554 -118.139470 152 3557ft 187kts
17-Mar-17 21:05 33.992523 -118.124786 219 3577ft 182kts
17-Mar-17 21:06 33.963921 -118.170720 232 3551ft 181kts
17-Mar-17 21:07 33.953947 -118.222850 261 2795ft 185kts
17-Mar-17 21:08 33.948159 -118.278553 263 1876ft 181kts
17-Mar-17 21:09 33.943003 -118.328547 264 1044ft 139kts
17-Mar-17 21:10 33.938505 -118.372119 262 401ft 140kts
17-Mar-17 21:11 33.935566 -118.405241 288 138ft 28kts
17-Mar-17 21:12 33.937304 -118.409036 351 138ft 10kts
17-Mar-17 21:13 33.939600 -118.407300 43 138ft 0kts

Navigation Log

Ident Type
Flight plan parsing failed, navigation log unavailable